createdAt,value
2022-09-27T00:01:02.113Z,2.00
2022-09-27T00:03:29.692Z,2.00
2022-09-27T00:06:05.603Z,2.30
2022-09-27T00:08:34.052Z,2.00
2022-09-27T00:11:03.811Z,1.92
2022-09-27T00:13:30.997Z,2.10
2022-09-27T00:15:59.779Z,1.98
2022-09-27T00:18:26.841Z,2.28
2022-09-27T00:20:54.437Z,2.05
2022-09-27T00:23:21.523Z,1.88
2022-09-27T00:25:59.332Z,1.77
2022-09-27T00:28:27.218Z,2.45
2022-09-27T00:30:54.686Z,2.03
2022-09-27T00:33:21.763Z,2.00
2022-09-27T00:35:49.105Z,2.03
2022-09-27T00:38:16.205Z,1.80
2022-09-27T00:40:43.574Z,1.88
2022-09-27T00:43:19.257Z,2.20
2022-09-27T00:46:04.821Z,2.00
2022-09-27T00:48:36.697Z,1.90
2022-09-27T00:51:07.097Z,1.60
2022-09-27T00:53:39.314Z,1.85
2022-09-27T00:56:11.071Z,1.83
2022-09-27T00:58:43.559Z,1.55
2022-09-27T01:01:16.468Z,1.52
2022-09-27T01:04:05.513Z,1.75
2022-09-27T01:06:33.268Z,1.60
2022-09-27T01:09:00.271Z,1.67
2022-09-27T01:11:48.383Z,1.63
2022-09-27T01:14:21.262Z,1.55
2022-09-27T01:17:14.457Z,1.65
2022-09-27T01:19:53.082Z,1.40
2022-09-27T01:22:25.963Z,1.13
2022-09-27T01:25:01.783Z,1.50
2022-09-27T01:28:03.258Z,1.60
2022-09-27T01:30:43.550Z,1.33
2022-09-27T01:33:35.404Z,1.30
2022-09-27T01:36:44.428Z,1.70
2022-09-27T01:39:38.462Z,1.38
2022-09-27T01:42:22.568Z,1.50
2022-09-27T01:45:02.831Z,1.42
2022-09-27T01:47:40.240Z,1.60
2022-09-27T01:50:13.843Z,2.10
2022-09-27T01:55:32.927Z,1.50
2022-09-27T01:58:29.301Z,1.90
2022-09-27T02:00:57.573Z,1.88
2022-09-27T02:03:29.065Z,2.20
2022-09-27T02:06:04.632Z,2.10
2022-09-27T02:08:53.390Z,2.08
2022-09-27T02:11:20.559Z,1.80
2022-09-27T02:13:47.549Z,1.65
2022-09-27T02:16:21.070Z,2.05
2022-09-27T02:19:12.980Z,2.00
2022-09-27T02:22:12.426Z,2.53
2022-09-27T02:24:46.440Z,1.98
2022-09-27T02:27:21.655Z,2.28
2022-09-27T02:29:59.508Z,2.10
2022-09-27T02:32:27.793Z,2.00
2022-09-27T02:34:57.833Z,1.67
2022-09-27T02:37:24.963Z,1.90
2022-09-27T02:39:52.036Z,2.10
2022-09-27T02:42:19.350Z,2.50
2022-09-27T02:44:46.454Z,2.22
2022-09-27T02:47:44.571Z,2.33
2022-09-27T02:50:42.156Z,2.10
2022-09-27T02:53:50.398Z,2.00
2022-09-27T02:56:28.565Z,2.03
2022-09-27T02:59:34.728Z,1.92
2022-09-27T03:02:18.263Z,2.03
2022-09-27T03:04:50.415Z,1.92
2022-09-27T03:07:17.803Z,1.80
2022-09-27T03:09:48.512Z,1.90
2022-09-27T03:12:23.048Z,1.77
2022-09-27T03:14:50.071Z,2.10
2022-09-27T03:17:17.412Z,2.05
2022-09-27T03:19:44.497Z,2.53
2022-09-27T03:22:11.540Z,2.35
2022-09-27T03:24:38.611Z,2.17
2022-09-27T03:27:06.557Z,1.80
2022-09-27T03:29:33.624Z,1.90
2022-09-27T03:32:00.783Z,2.50
2022-09-27T03:34:27.739Z,2.22
2022-09-27T03:36:54.712Z,2.10
2022-09-27T03:39:21.896Z,2.28
2022-09-27T03:41:48.868Z,1.95
2022-09-27T03:44:15.883Z,2.55
2022-09-27T03:46:42.857Z,2.38
2022-09-27T03:49:09.810Z,2.38
2022-09-27T03:51:36.892Z,1.95
2022-09-27T03:54:04.125Z,2.40
2022-09-27T03:56:31.128Z,2.05
2022-09-27T03:58:58.127Z,2.10
2022-09-27T04:01:26.365Z,1.98
2022-09-27T04:03:53.824Z,2.40
2022-09-27T04:06:20.997Z,2.38
2022-09-27T04:08:47.961Z,2.60
2022-09-27T04:11:15.609Z,2.58
2022-09-27T04:13:44.762Z,2.28
2022-09-27T04:16:11.925Z,2.50
2022-09-27T04:18:38.861Z,2.70
2022-09-27T04:21:06.024Z,2.60
2022-09-27T04:23:34.123Z,3.28
2022-09-27T04:26:01.374Z,2.70
2022-09-27T04:28:30.111Z,3.60
2022-09-27T04:30:57.374Z,2.83
2022-09-27T04:33:24.524Z,3.22
2022-09-27T04:36:10.291Z,3.17
2022-09-27T04:38:37.357Z,2.97
2022-09-27T04:41:04.535Z,2.88
2022-09-27T04:43:31.595Z,2.35
2022-09-27T04:45:58.605Z,2.50
2022-09-27T04:48:26.511Z,2.50
2022-09-27T04:51:02.649Z,2.50
2022-09-27T04:53:30.482Z,2.33
2022-09-27T04:55:57.717Z,2.20
2022-09-27T04:58:25.458Z,2.63
2022-09-27T05:00:56.057Z,2.25
2022-09-27T05:03:23.664Z,3.08
2022-09-27T05:05:50.795Z,2.20
2022-09-27T05:08:18.527Z,2.58
2022-09-27T05:10:45.568Z,2.30
2022-09-27T05:13:12.554Z,2.50
2022-09-27T05:15:39.892Z,2.33
2022-09-27T05:18:08.517Z,2.28
2022-09-27T05:20:36.675Z,2.88
2022-09-27T05:23:07.586Z,2.28
2022-09-27T05:25:35.373Z,2.85
2022-09-27T05:28:02.692Z,2.80
2022-09-27T05:30:29.725Z,2.47
2022-09-27T05:32:56.760Z,2.55
2022-09-27T05:35:24.465Z,2.50
2022-09-27T05:37:53.294Z,2.00
2022-09-27T05:40:40.317Z,2.35
2022-09-27T05:43:08.992Z,2.65
2022-09-27T05:45:36.035Z,2.20
2022-09-27T05:48:03.492Z,3.00
2022-09-27T05:50:30.700Z,2.75
2022-09-27T05:52:58.241Z,2.35
2022-09-27T05:55:25.323Z,2.28
2022-09-27T05:57:57.474Z,2.42
2022-09-27T06:00:26.189Z,2.75
2022-09-27T06:02:55.400Z,2.65
2022-09-27T06:05:23.068Z,2.97
2022-09-27T06:07:50.420Z,2.78
2022-09-27T06:10:19.573Z,2.55
2022-09-27T06:12:46.734Z,2.63
2022-09-27T06:15:14.963Z,2.72
2022-09-27T06:17:42.035Z,2.45
2022-09-27T06:20:09.909Z,2.80
2022-09-27T06:22:37.330Z,2.80
2022-09-27T06:25:05.352Z,2.40
2022-09-27T06:27:32.958Z,2.40
2022-09-27T06:30:00.399Z,2.40
2022-09-27T06:32:27.499Z,2.30
2022-09-27T06:34:54.539Z,2.00
2022-09-27T06:37:25.599Z,2.30
2022-09-27T06:39:53.424Z,1.85
2022-09-27T06:42:20.996Z,2.30
2022-09-27T06:44:50.590Z,1.88
2022-09-27T06:47:18.009Z,2.13
2022-09-27T06:49:45.110Z,2.50
2022-09-27T06:52:12.409Z,2.28
2022-09-27T06:54:39.369Z,1.75
2022-09-27T06:57:06.365Z,2.08
2022-09-27T06:59:52.018Z,1.90
2022-09-27T07:02:19.195Z,1.80
2022-09-27T07:04:46.262Z,1.83
2022-09-27T07:07:14.197Z,1.88
2022-09-27T07:09:41.226Z,1.52
2022-09-27T07:12:08.290Z,1.90
2022-09-27T07:14:35.578Z,1.58
2022-09-27T07:17:02.596Z,2.00
2022-09-27T07:19:29.694Z,2.03
2022-09-27T07:21:56.808Z,1.70
2022-09-27T07:24:23.855Z,2.35
2022-09-27T07:26:51.063Z,1.67
2022-09-27T07:29:18.108Z,1.73
2022-09-27T07:31:45.210Z,2.13
2022-09-27T07:34:12.607Z,2.40
2022-09-27T07:36:39.810Z,2.22
2022-09-27T07:39:07.096Z,2.38
2022-09-27T07:41:34.116Z,2.50
2022-09-27T07:44:01.472Z,2.22
2022-09-27T07:46:31.195Z,2.30
2022-09-27T07:48:59.040Z,2.10
2022-09-27T07:51:26.176Z,3.03
2022-09-27T07:53:53.128Z,2.58
2022-09-27T07:56:20.206Z,2.78
2022-09-27T07:58:47.449Z,3.08
2022-09-27T08:01:14.666Z,2.85
2022-09-27T08:03:41.774Z,2.63
2022-09-27T08:06:08.901Z,2.65
2022-09-27T08:08:36.588Z,3.00
2022-09-27T08:11:14.073Z,2.28
2022-09-27T08:13:42.225Z,2.05
2022-09-27T08:16:09.388Z,1.95
2022-09-27T08:18:36.462Z,1.95
2022-09-27T08:21:04.210Z,2.20
2022-09-27T08:23:31.758Z,2.17
2022-09-27T08:25:59.040Z,2.03
2022-09-27T08:28:27.543Z,1.75
2022-09-27T08:30:55.063Z,1.95
2022-09-27T08:33:22.502Z,2.80
2022-09-27T08:35:49.528Z,2.25
2022-09-27T08:38:16.519Z,2.50
2022-09-27T08:40:52.703Z,2.35
2022-09-27T08:43:53.133Z,2.15
2022-09-27T08:46:37.062Z,2.22
2022-09-27T08:51:35.557Z,2.38
2022-09-27T08:54:12.079Z,2.60
2022-09-27T08:56:39.334Z,3.28
2022-09-27T08:59:15.780Z,3.53
2022-09-27T09:01:43.513Z,3.92
2022-09-27T09:04:12.854Z,3.67
2022-09-27T09:06:51.680Z,3.10
2022-09-27T09:09:40.530Z,3.13
2022-09-27T09:12:41.235Z,3.65
2022-09-27T09:15:23.079Z,4.25
2022-09-27T09:18:01.722Z,3.60
2022-09-27T09:20:31.638Z,3.20
2022-09-27T09:23:13.567Z,2.70
2022-09-27T09:25:51.978Z,2.80
2022-09-27T09:28:47.958Z,3.53
2022-09-27T09:32:19.739Z,2.72
2022-09-27T09:34:53.362Z,3.33
2022-09-27T09:39:57.139Z,3.72
2022-09-27T09:42:30.707Z,3.55
2022-09-27T09:47:55.037Z,5.38
2022-09-27T09:50:27.666Z,4.60
2022-09-27T09:53:16.661Z,3.40
2022-09-27T09:55:50.431Z,3.90
2022-09-27T09:58:20.313Z,3.08
2022-09-27T10:00:49.278Z,3.05
2022-09-27T10:03:16.336Z,3.28
2022-09-27T10:05:45.555Z,4.88
2022-09-27T10:08:20.581Z,5.25
2022-09-27T10:10:47.904Z,4.22
2022-09-27T10:13:17.750Z,3.92
2022-09-27T10:16:03.510Z,4.78
2022-09-27T10:18:31.002Z,4.00
2022-09-27T10:21:02.463Z,4.13
2022-09-27T10:23:30.413Z,2.85
2022-09-27T10:26:03.049Z,2.88
2022-09-27T10:28:37.763Z,4.45
2022-09-27T10:31:11.769Z,4.28
2022-09-27T10:33:52.143Z,5.50
2022-09-27T10:36:36.645Z,5.88
2022-09-27T10:39:06.887Z,4.80
2022-09-27T10:41:39.153Z,5.68
2022-09-27T10:44:18.398Z,5.20
2022-09-27T10:46:50.860Z,5.93
2022-09-27T10:49:40.141Z,5.05
2022-09-27T10:52:16.435Z,5.60
2022-09-27T10:54:52.655Z,5.90
2022-09-27T10:57:29.005Z,5.40
2022-09-27T10:59:57.174Z,5.80
2022-09-27T11:02:33.143Z,5.45
2022-09-27T11:05:06.726Z,5.18
2022-09-27T11:10:03.641Z,4.03
2022-09-27T11:12:32.282Z,4.10
2022-09-27T11:15:07.036Z,3.92
2022-09-27T11:17:51.130Z,6.15
2022-09-27T11:20:35.453Z,4.93
2022-09-27T11:23:30.763Z,4.40
2022-09-27T11:26:00.858Z,3.83
2022-09-27T11:29:08.141Z,4.88
2022-09-27T11:32:07.845Z,4.00
2022-09-27T11:34:49.296Z,4.18
2022-09-27T11:37:36.820Z,3.38
2022-09-27T11:40:11.114Z,3.33
2022-09-27T11:42:56.024Z,3.28
2022-09-27T11:48:36.627Z,3.30
2022-09-27T11:51:11.760Z,3.47
2022-09-27T11:53:57.269Z,3.03
2022-09-27T11:56:36.375Z,2.88
2022-09-27T11:59:14.415Z,2.85
2022-09-27T12:02:01.864Z,2.95
2022-09-27T12:04:40.380Z,3.10
2022-09-27T12:07:20.404Z,2.70
2022-09-27T12:09:53.660Z,3.47
2022-09-27T12:12:27.134Z,3.20
2022-09-27T12:15:01.664Z,2.83
2022-09-27T12:17:35.640Z,2.72
2022-09-27T12:20:23.585Z,2.45
2022-09-27T12:23:00.026Z,3.42
2022-09-27T12:25:31.948Z,3.35
2022-09-27T12:28:09.195Z,2.10
2022-09-27T12:30:40.490Z,2.50
2022-09-27T12:33:32.216Z,2.50
2022-09-27T12:36:17.575Z,2.53
2022-09-27T12:38:52.294Z,2.25
2022-09-27T12:41:23.481Z,2.28
2022-09-27T12:43:51.107Z,2.22
2022-09-27T12:46:56.193Z,2.10
2022-09-27T12:50:17.216Z,2.30
2022-09-27T12:53:00.091Z,2.92
2022-09-27T12:56:06.842Z,2.60
2022-09-27T12:58:46.757Z,2.30
2022-09-27T13:01:19.863Z,2.67
2022-09-27T13:04:05.011Z,2.65
2022-09-27T13:06:39.342Z,3.17
2022-09-27T13:09:24.753Z,3.00
2022-09-27T13:12:03.093Z,3.45
2022-09-27T13:14:36.023Z,2.85
2022-09-27T13:17:03.456Z,2.83
2022-09-27T13:19:36.218Z,2.40
2022-09-27T13:22:05.236Z,3.10
2022-09-27T13:24:40.931Z,2.70
2022-09-27T13:27:23.931Z,3.30
2022-09-27T13:29:51.849Z,3.30
2022-09-27T13:32:29.326Z,3.28
2022-09-27T13:35:21.075Z,3.53
2022-09-27T13:37:59.697Z,3.88
2022-09-27T13:40:34.564Z,3.75
2022-09-27T13:43:10.860Z,3.67
2022-09-27T13:45:49.563Z,3.05
2022-09-27T13:48:21.580Z,3.08
2022-09-27T13:51:01.794Z,2.45
2022-09-27T13:53:35.245Z,2.88
2022-09-27T13:56:02.995Z,2.78
2022-09-27T13:58:55.123Z,2.92
2022-09-27T14:01:44.286Z,2.95
2022-09-27T14:04:28.610Z,4.38
2022-09-27T14:07:02.122Z,3.70
2022-09-27T14:12:05.901Z,3.22
2022-09-27T14:14:33.821Z,3.45
2022-09-27T14:17:02.461Z,3.25
2022-09-27T14:19:30.762Z,3.10
2022-09-27T14:21:58.139Z,3.28
2022-09-27T14:24:27.408Z,3.10
2022-09-27T14:27:17.724Z,3.28
2022-09-27T14:29:49.177Z,3.25
2022-09-27T14:32:27.753Z,3.63
2022-09-27T14:35:32.570Z,3.60
2022-09-27T14:38:15.730Z,3.38
2022-09-27T14:40:53.869Z,3.20
2022-09-27T14:43:22.828Z,3.33
2022-09-27T14:45:58.086Z,3.42
2022-09-27T14:48:29.308Z,2.92
2022-09-27T14:51:06.234Z,3.33
2022-09-27T14:53:37.573Z,2.63
2022-09-27T14:56:07.420Z,3.33
2022-09-27T14:58:47.628Z,2.58
2022-09-27T15:01:24.104Z,2.40
2022-09-27T15:03:51.407Z,2.55
2022-09-27T15:06:20.340Z,2.42
2022-09-27T15:08:49.818Z,2.65
2022-09-27T15:11:19.656Z,2.50
2022-09-27T15:13:51.471Z,2.78
2022-09-27T15:16:21.550Z,2.67
2022-09-27T15:19:03.928Z,2.75
2022-09-27T15:21:36.717Z,2.95
2022-09-27T15:24:04.376Z,2.88
2022-09-27T15:26:36.511Z,2.97
2022-09-27T15:29:04.778Z,2.75
2022-09-27T15:31:35.010Z,2.60
2022-09-27T15:34:04.902Z,2.28
2022-09-27T15:36:54.168Z,2.55
2022-09-27T15:39:30.906Z,2.53
2022-09-27T15:42:09.296Z,2.30
2022-09-27T15:44:43.822Z,2.30
2022-09-27T15:47:32.535Z,2.38
2022-09-27T15:50:03.420Z,2.80
2022-09-27T15:52:45.082Z,3.08
2022-09-27T15:55:13.141Z,3.05
2022-09-27T15:57:41.326Z,3.28
2022-09-27T16:00:14.013Z,3.30
2022-09-27T16:02:41.100Z,3.38
2022-09-27T16:05:08.488Z,4.05
2022-09-27T16:07:35.746Z,3.03
2022-09-27T16:10:02.861Z,3.90
2022-09-27T16:12:31.540Z,3.97
2022-09-27T16:14:58.529Z,3.70
2022-09-27T16:17:25.527Z,2.67
2022-09-27T16:19:52.636Z,2.97
2022-09-27T16:22:19.597Z,3.22
2022-09-27T16:24:50.062Z,2.90
2022-09-27T16:27:24.870Z,3.10
2022-09-27T16:29:51.847Z,3.60
2022-09-27T16:32:18.867Z,3.17
2022-09-27T16:34:45.957Z,3.15
2022-09-27T16:37:13.009Z,3.65
2022-09-27T16:39:40.546Z,3.42
2022-09-27T16:42:08.729Z,3.30
2022-09-27T16:44:36.292Z,4.60
2022-09-27T16:47:07.841Z,3.50
2022-09-27T16:49:53.456Z,3.70
2022-09-27T16:52:20.881Z,3.38
2022-09-27T16:54:47.877Z,3.85
2022-09-27T16:57:14.866Z,3.00
2022-09-27T16:59:41.936Z,3.33
2022-09-27T17:02:10.044Z,3.97
2022-09-27T17:04:37.065Z,3.85
2022-09-27T17:07:04.096Z,3.10
2022-09-27T17:09:31.120Z,3.80
2022-09-27T17:11:58.203Z,5.30
2022-09-27T17:14:27.488Z,3.90
2022-09-27T17:16:54.597Z,3.38
2022-09-27T17:19:23.087Z,4.20
2022-09-27T17:21:50.572Z,4.82
2022-09-27T17:24:18.216Z,5.15
2022-09-27T17:26:45.415Z,4.03
2022-09-27T17:29:13.042Z,7.30
2022-09-27T17:31:41.590Z,5.57
2022-09-27T17:34:12.473Z,5.03
2022-09-27T17:36:45.406Z,4.68
2022-09-27T17:39:14.821Z,5.80
2022-09-27T17:41:42.650Z,4.60
2022-09-27T17:44:14.754Z,4.25
2022-09-27T17:46:42.683Z,5.53
2022-09-27T17:49:29.455Z,5.50
2022-09-27T17:51:56.822Z,3.38
2022-09-27T17:54:26.487Z,3.45
2022-09-27T17:56:53.751Z,4.53
2022-09-27T17:59:20.770Z,6.90
2022-09-27T18:01:48.130Z,4.20
2022-09-27T18:04:17.527Z,3.35
2022-09-27T18:06:46.806Z,4.68
2022-09-27T18:09:16.533Z,4.53
2022-09-27T18:11:44.512Z,4.68
2022-09-27T18:14:11.761Z,4.40
2022-09-27T18:16:43.242Z,5.35
2022-09-27T18:19:16.702Z,5.05
2022-09-27T18:21:44.245Z,4.00
2022-09-27T18:24:11.926Z,4.95
2022-09-27T18:26:40.016Z,4.22
2022-09-27T18:29:11.034Z,4.93
2022-09-27T18:31:42.061Z,3.38
2022-09-27T18:34:10.837Z,3.83
2022-09-27T18:36:41.019Z,3.05
2022-09-27T18:39:13.321Z,3.25
2022-09-27T18:41:40.413Z,3.45
2022-09-27T18:44:07.617Z,3.15
2022-09-27T18:46:37.326Z,3.88
2022-09-27T18:49:10.854Z,3.50
2022-09-27T18:51:42.169Z,5.07
2022-09-27T18:54:17.449Z,3.55
2022-09-27T18:56:44.874Z,3.70
2022-09-27T18:59:12.427Z,3.40
2022-09-27T19:01:45.502Z,3.40
2022-09-27T19:04:17.519Z,3.60
2022-09-27T19:09:13.306Z,3.53
2022-09-27T19:11:40.429Z,3.47
2022-09-27T19:14:07.665Z,3.63
2022-09-27T19:16:35.149Z,3.60
2022-09-27T19:19:02.169Z,3.25
2022-09-27T19:21:30.399Z,2.75
2022-09-27T19:23:57.751Z,2.90
2022-09-27T19:26:26.708Z,4.05
2022-09-27T19:28:54.294Z,3.15
2022-09-27T19:31:24.755Z,2.90
2022-09-27T19:33:57.522Z,3.00
2022-09-27T19:36:27.176Z,3.10
2022-09-27T19:38:54.850Z,3.17
2022-09-27T19:41:21.847Z,3.90
2022-09-27T19:43:53.312Z,3.00
2022-09-27T19:46:22.089Z,3.20
2022-09-27T19:48:50.307Z,3.55
2022-09-27T19:51:22.375Z,2.75
2022-09-27T19:53:50.728Z,3.40
2022-09-27T19:56:18.759Z,3.42
2022-09-27T19:58:46.085Z,3.38
2022-09-27T20:01:14.781Z,3.20
2022-09-27T20:03:43.690Z,2.90
2022-09-27T20:06:13.163Z,3.33
2022-09-27T20:08:40.692Z,3.58
2022-09-27T20:11:10.333Z,3.60
2022-09-27T20:13:38.318Z,3.00
2022-09-27T20:16:12.789Z,3.75
2022-09-27T20:18:44.524Z,3.42
2022-09-27T20:21:12.224Z,3.38
2022-09-27T20:23:39.313Z,3.28
2022-09-27T20:26:12.112Z,2.90
2022-09-27T20:28:44.143Z,3.30
2022-09-27T20:31:13.353Z,3.42
2022-09-27T20:33:52.608Z,3.63
2022-09-27T20:36:23.663Z,3.83
2022-09-27T20:39:03.024Z,3.80
2022-09-27T20:41:32.912Z,3.40
2022-09-27T20:44:05.208Z,3.55
2022-09-27T20:46:33.156Z,3.80
2022-09-27T20:49:03.278Z,3.63
2022-09-27T20:51:34.529Z,3.53
2022-09-27T20:54:03.027Z,3.80
2022-09-27T20:56:32.647Z,3.50
2022-09-27T20:59:02.019Z,3.25
2022-09-27T21:01:29.937Z,3.47
2022-09-27T21:03:59.805Z,3.70
2022-09-27T21:06:27.802Z,3.25
2022-09-27T21:08:55.377Z,3.00
2022-09-27T21:11:23.092Z,4.22
2022-09-27T21:13:51.991Z,2.80
2022-09-27T21:16:21.975Z,3.25
2022-09-27T21:18:51.166Z,3.65
2022-09-27T21:21:19.212Z,5.20
2022-09-27T21:23:47.772Z,5.53
2022-09-27T21:26:19.748Z,5.55
2022-09-27T21:28:55.063Z,4.40
2022-09-27T21:31:30.201Z,4.13
2022-09-27T21:33:59.475Z,4.68
2022-09-27T21:36:29.186Z,5.00
2022-09-27T21:38:56.308Z,4.80
2022-09-27T21:41:24.247Z,4.43
2022-09-27T21:43:51.489Z,4.20
2022-09-27T21:46:20.934Z,4.43
2022-09-27T21:48:49.933Z,3.92
2022-09-27T21:51:22.427Z,4.57
2022-09-27T21:53:57.997Z,4.35
2022-09-27T21:56:27.476Z,4.40
2022-09-27T21:58:54.472Z,4.72
2022-09-27T22:01:32.681Z,4.05
2022-09-27T22:04:01.695Z,3.67
2022-09-27T22:06:31.212Z,4.28
2022-09-27T22:08:59.276Z,5.18
2022-09-27T22:11:32.224Z,4.82
2022-09-27T22:13:59.869Z,4.18
2022-09-27T22:16:27.825Z,3.70
2022-09-27T22:18:56.655Z,4.03
2022-09-27T22:21:26.785Z,4.18
2022-09-27T22:23:58.747Z,4.65
2022-09-27T22:26:31.288Z,3.83
2022-09-27T22:28:59.834Z,4.15
2022-09-27T22:31:27.598Z,3.95
2022-09-27T22:33:57.336Z,4.10
2022-09-27T22:36:25.116Z,3.90
2022-09-27T22:38:52.612Z,3.72
2022-09-27T22:41:20.501Z,4.45
2022-09-27T22:43:48.164Z,3.42
2022-09-27T22:46:15.254Z,3.17
2022-09-27T22:48:42.817Z,3.72
2022-09-27T22:51:09.934Z,3.53
2022-09-27T22:53:37.940Z,3.95
2022-09-27T22:56:11.307Z,4.00
2022-09-27T22:58:38.456Z,3.70
2022-09-27T23:01:15.076Z,4.40
2022-09-27T23:03:43.153Z,3.08
2022-09-27T23:06:11.044Z,4.00
2022-09-27T23:08:39.341Z,3.40
2022-09-27T23:11:08.565Z,3.47
2022-09-27T23:13:39.744Z,3.65
2022-09-27T23:16:09.573Z,3.97
2022-09-27T23:18:37.551Z,3.35
2022-09-27T23:21:07.383Z,4.13
2022-09-27T23:23:37.054Z,3.78
2022-09-27T23:26:06.962Z,4.40
2022-09-27T23:28:34.609Z,5.47
2022-09-27T23:31:10.298Z,3.92
2022-09-27T23:33:39.295Z,4.75
2022-09-27T23:36:08.718Z,4.45
2022-09-27T23:38:37.496Z,3.97
2022-09-27T23:41:04.986Z,3.88
2022-09-27T23:43:31.937Z,3.40
2022-09-27T23:45:59.153Z,3.92
2022-09-27T23:48:26.663Z,4.20
2022-09-27T23:50:54.132Z,3.88
2022-09-27T23:53:21.990Z,4.07
2022-09-27T23:56:19.138Z,4.13
2022-09-27T23:58:47.244Z,3.58
